createdAt,value
2017-06-20T00:01:00.898Z,0
2017-06-20T00:11:00.869Z,0
2017-06-20T00:21:00.937Z,0
2017-06-20T00:31:00.891Z,0
2017-06-20T00:41:00.931Z,0
2017-06-20T00:51:00.905Z,0
2017-06-20T01:01:00.845Z,0
2017-06-20T01:11:00.915Z,0
2017-06-20T01:21:00.897Z,0
2017-06-20T01:31:00.866Z,0
2017-06-20T01:41:00.895Z,0
2017-06-20T01:51:00.877Z,0
2017-06-20T02:01:00.924Z,0
2017-06-20T02:11:00.885Z,0
2017-06-20T02:21:00.835Z,0
2017-06-20T02:31:00.936Z,0
2017-06-20T02:41:00.905Z,0
2017-06-20T02:51:00.937Z,0
2017-06-20T03:01:00.910Z,0
2017-06-20T03:11:00.865Z,5
2017-06-20T03:21:00.913Z,10
2017-06-20T03:31:00.895Z,20
2017-06-20T03:41:00.956Z,35
2017-06-20T03:51:00.908Z,45
2017-06-20T04:01:00.865Z,60
2017-06-20T04:11:00.948Z,75
2017-06-20T04:21:00.884Z,90
2017-06-20T04:31:00.867Z,110
2017-06-20T04:41:00.931Z,125
2017-06-20T04:51:00.889Z,155
2017-06-20T05:01:00.958Z,215
2017-06-20T05:11:00.917Z,225
2017-06-20T05:21:00.924Z,245
2017-06-20T05:31:00.872Z,225
2017-06-20T05:41:00.946Z,280
2017-06-20T05:51:00.962Z,325
2017-06-20T06:01:00.954Z,400
2017-06-20T06:11:01.033Z,755
2017-06-20T06:21:01.196Z,730
2017-06-20T06:31:00.946Z,725
2017-06-20T06:41:01.316Z,775
2017-06-20T06:51:00.991Z,850
2017-06-20T07:01:00.923Z,920
2017-06-20T07:11:00.876Z,990
2017-06-20T07:21:00.996Z,980
2017-06-20T07:31:00.894Z,1005
2017-06-20T07:41:01.002Z,1050
2017-06-20T07:51:00.907Z,970
2017-06-20T08:01:00.886Z,1175
2017-06-20T08:11:00.895Z,1190
2017-06-20T08:21:00.938Z,1205
2017-06-20T08:31:00.884Z,980
2017-06-20T08:41:00.924Z,1045
2017-06-20T08:51:00.906Z,1040
2017-06-20T09:01:00.992Z,1015
2017-06-20T09:11:00.904Z,380
2017-06-20T09:21:00.927Z,340
2017-06-20T09:31:00.927Z,330
2017-06-20T09:41:00.903Z,335
2017-06-20T09:51:01.016Z,320
2017-06-20T10:01:00.909Z,325
2017-06-20T10:11:00.913Z,330
2017-06-20T10:21:00.973Z,335
2017-06-20T10:31:00.945Z,335
2017-06-20T10:41:00.937Z,340
2017-06-20T10:51:00.932Z,310
2017-06-20T11:01:01.094Z,325
2017-06-20T11:11:01.037Z,400
2017-06-20T11:21:00.974Z,390
2017-06-20T11:31:01.006Z,380
2017-06-20T11:41:00.948Z,370
2017-06-20T11:51:00.952Z,395
2017-06-20T12:01:00.997Z,405
2017-06-20T12:11:01.036Z,335
2017-06-20T12:21:00.967Z,380
2017-06-20T12:31:00.990Z,365
2017-06-20T12:41:01.025Z,370
2017-06-20T12:51:01.020Z,380
2017-06-20T13:01:01.031Z,365
2017-06-20T13:11:01.055Z,370
2017-06-20T13:21:01.134Z,385
2017-06-20T13:31:01.055Z,300
2017-06-20T13:41:01.086Z,325
2017-06-20T13:51:01.134Z,280
2017-06-20T14:01:01.023Z,335
2017-06-20T14:11:01.078Z,270
2017-06-20T14:21:01.081Z,205
2017-06-20T14:31:01.105Z,240
2017-06-20T14:41:01.074Z,300
2017-06-20T14:51:01.144Z,340
2017-06-20T15:01:01.090Z,345
2017-06-20T15:11:01.073Z,310
2017-06-20T15:21:01.119Z,300
2017-06-20T15:31:01.088Z,315
2017-06-20T15:41:01.310Z,290
2017-06-20T15:51:01.181Z,305
2017-06-20T16:01:01.035Z,200
2017-06-20T16:11:01.070Z,250
2017-06-20T16:21:01.393Z,230
2017-06-20T16:31:01.245Z,235
2017-06-20T16:41:01.123Z,215
2017-06-20T16:51:01.043Z,185
2017-06-20T17:01:01.050Z,185
2017-06-20T17:11:02.089Z,170
2017-06-20T17:21:01.051Z,145
2017-06-20T17:31:01.063Z,120
2017-06-20T17:41:01.111Z,120
2017-06-20T17:51:01.083Z,115
2017-06-20T18:01:01.296Z,100
2017-06-20T18:11:01.283Z,90
2017-06-20T18:21:01.132Z,80
2017-06-20T18:31:01.274Z,75
2017-06-20T18:41:01.117Z,65
2017-06-20T18:51:01.238Z,55
2017-06-20T19:01:01.256Z,50
2017-06-20T19:11:01.320Z,40
2017-06-20T19:21:01.124Z,30
2017-06-20T19:31:01.719Z,20
2017-06-20T19:41:01.119Z,10
2017-06-20T19:51:01.092Z,5
2017-06-20T20:01:01.186Z,0
2017-06-20T20:11:01.143Z,0
2017-06-20T20:21:04.618Z,0
2017-06-20T20:31:01.200Z,0
2017-06-20T20:41:01.246Z,0
2017-06-20T20:51:01.274Z,0
2017-06-20T21:01:01.109Z,0
2017-06-20T21:11:01.220Z,0
2017-06-20T21:21:01.156Z,0
2017-06-20T21:31:01.210Z,0
2017-06-20T21:41:01.165Z,0
2017-06-20T21:51:01.559Z,0
2017-06-20T22:01:01.494Z,0
2017-06-20T22:11:01.217Z,0
2017-06-20T22:21:01.296Z,0
2017-06-20T22:31:01.405Z,0
2017-06-20T22:41:01.405Z,0
2017-06-20T22:51:01.213Z,0
2017-06-20T23:01:01.176Z,0
2017-06-20T23:11:01.093Z,0
2017-06-20T23:21:01.187Z,0
2017-06-20T23:31:01.222Z,0
2017-06-20T23:41:01.325Z,0
2017-06-20T23:51:01.537Z,0
